Time;durP1;ratioP1;P1;durP2;ratioP2;P2;SDS_P1;SDS_P2;PMS_P1;PMS_P2;Temp;Humidity;BMP_temperature;BMP_pressure;BME280_temperature;BME280_humidity;BME280_pressure;Samples;Min_cycle;Max_cycle;Signal;HPM_P1;HPM_P2
2022/07/16 00:02:52;;;;;;;8.48;4.22;;;;;;;19.18;63.45;98840.28;4972550;28;20042;-80
2022/07/16 00:05:17;;;;;;;5.97;3.72;;;;;;;19.18;63.53;98832.13;4988389;28;20049;-79
2022/07/16 00:07:43;;;;;;;7.18;4.00;;;;;;;19.01;63.64;98823.41;4972950;28;20050;-79
2022/07/16 00:10:10;;;;;;;4.80;3.95;;;;;;;19.05;63.39;98827.41;4972503;28;20417;-79
2022/07/16 00:12:36;;;;;;;4.60;3.65;;;;;;;18.95;63.55;98826.88;4972544;28;20077;-80
2022/07/16 00:15:03;;;;;;;5.93;3.97;;;;;;;18.98;63.50;98833.78;4972539;28;20141;-81
2022/07/16 00:17:29;;;;;;;5.38;4.05;;;;;;;18.95;63.63;98826.03;4992581;28;20182;-81
2022/07/16 00:19:55;;;;;;;4.22;3.83;;;;;;;18.93;63.85;98832.47;4992069;28;20062;-78
2022/07/16 00:22:21;;;;;;;4.53;4.10;;;;;;;18.93;64.16;98832.47;4977852;28;20057;-81
2022/07/16 00:24:47;;;;;;;7.43;4.05;;;;;;;18.95;63.78;98834.16;4992421;28;20047;-79
2022/07/16 00:27:13;;;;;;;4.68;4.25;;;;;;;18.98;63.75;98841.91;4977338;28;20413;-79
2022/07/16 00:29:39;;;;;;;4.20;3.80;;;;;;;18.98;63.36;98842.75;4991880;28;20093;-79
2022/07/16 00:32:05;;;;;;;10.25;4.78;;;;;;;19.03;63.83;98853.88;4976171;28;20049;-79
2022/07/16 00:34:31;;;;;;;5.38;4.10;;;;;;;19.12;63.60;98841.88;4975968;28;20042;-78
2022/07/16 00:36:57;;;;;;;5.50;3.88;;;;;;;19.24;63.54;98849.53;4975788;28;20053;-79
2022/07/16 00:39:22;;;;;;;4.90;3.65;;;;;;;19.26;63.46;98840.19;4959821;28;20125;-79
2022/07/16 00:41:49;;;;;;;4.22;3.55;;;;;;;19.33;63.25;98840.22;4975765;28;20489;-77
2022/07/16 00:44:17;;;;;;;4.57;3.65;;;;;;;19.34;62.95;98844.66;4992317;28;20471;-79
2022/07/16 00:46:45;;;;;;;4.60;4.00;;;;;;;19.30;62.74;98837.94;4991828;28;20413;-80
2022/07/16 00:49:11;;;;;;;6.75;4.25;;;;;;;19.18;63.02;98837.56;4975696;28;20042;-80
2022/07/16 00:51:45;;;;;;;7.40;3.65;;;;;;;19.04;63.36;98828.44;4992247;28;20379;-80
2022/07/16 00:54:11;;;;;;;5.57;4.20;;;;;;;19.08;63.61;98846.00;4959547;28;20070;-79
2022/07/16 00:56:37;;;;;;;4.68;3.80;;;;;;;18.89;64.19;98846.59;4975173;28;20085;-78
2022/07/16 00:59:03;;;;;;;4.13;3.67;;;;;;;18.83;63.99;98836.50;4992166;28;20078;-79
2022/07/16 01:01:29;;;;;;;7.15;4.18;;;;;;;18.99;64.20;98851.69;4991794;28;20082;-80
2022/07/16 01:03:55;;;;;;;5.47;3.95;;;;;;;19.02;63.62;98841.34;4959312;28;20490;-80
2022/07/16 01:06:22;;;;;;;5.30;3.50;;;;;;;19.19;63.60;98849.25;4976632;28;20074;-77
2022/07/16 01:08:49;;;;;;;4.35;3.95;;;;;;;19.25;63.06;98853.91;4976908;28;20042;-80
2022/07/16 01:11:19;;;;;;;8.38;4.15;;;;;;;19.20;63.04;98853.66;4959198;28;20402;-82
2022/07/16 01:13:48;;;;;;;5.25;4.15;;;;;;;19.06;63.18;98853.47;4976314;28;20509;-79
2022/07/16 01:16:14;;;;;;;4.80;4.30;;;;;;;18.93;63.28;98832.47;4976344;28;20125;-79
2022/07/16 01:18:41;;;;;;;8.30;4.28;;;;;;;19.08;63.36;98861.41;4991379;28;20090;-79
2022/07/16 01:21:08;;;;;;;4.63;4.22;;;;;;;19.03;63.72;98848.44;4974955;28;20093;-79
2022/07/16 01:23:34;;;;;;;7.38;4.28;;;;;;;19.04;63.21;98852.84;4975996;28;20047;-78
2022/07/16 01:25:59;;;;;;;5.47;4.40;;;;;;;18.94;63.48;98844.16;4975249;28;20501;-79
2022/07/16 01:28:25;;;;;;;6.70;4.25;;;;;;;18.94;63.88;98844.16;4974972;28;20035;-80
2022/07/16 01:30:52;;;;;;;4.80;4.43;;;;;;;19.00;63.81;98856.94;4974906;28;20521;-78
2022/07/16 01:33:24;;;;;;;5.85;4.00;;;;;;;19.07;64.00;98868.72;4974743;28;20047;-80
2022/07/16 01:35:53;;;;;;;6.00;4.57;;;;;;;19.08;64.02;98856.84;4958685;28;20082;-78
2022/07/16 01:38:19;;;;;;;6.07;4.82;;;;;;;19.13;64.22;98869.81;4958715;28;20043;-79
2022/07/16 01:40:44;;;;;;;6.13;4.55;;;;;;;19.19;64.10;98860.09;4974647;28;20053;-78
2022/07/16 01:43:15;;;;;;;5.80;4.68;;;;;;;19.23;64.23;98858.69;4974630;28;20093;-79
2022/07/16 01:45:41;;;;;;;5.75;5.13;;;;;;;19.24;63.61;98865.78;4990743;28;20051;-80
2022/07/16 01:48:07;;;;;;;5.55;4.43;;;;;;;19.39;64.06;98853.88;4975833;28;20058;-79
2022/07/16 01:50:33;;;;;;;8.57;5.00;;;;;;;19.55;63.33;98851.94;4975605;28;20042;-80
2022/07/16 01:52:59;;;;;;;5.60;4.57;;;;;;;19.60;63.30;98858.50;4974429;28;20073;-80
2022/07/16 01:55:25;;;;;;;5.47;4.88;;;;;;;19.46;63.35;98845.81;4976008;28;20081;-79
2022/07/16 01:57:50;;;;;;;5.38;4.88;;;;;;;19.61;63.53;98853.91;4974611;28;20055;-78
2022/07/16 02:00:16;;;;;;;5.40;4.90;;;;;;;19.50;63.48;98844.41;4974504;28;20047;-80
2022/07/16 02:02:42;;;;;;;8.95;5.15;;;;;;;19.58;63.61;98855.13;4974245;28;20085;-80
2022/07/16 02:05:08;;;;;;;6.72;4.40;;;;;;;19.59;63.46;98864.09;4990190;28;20121;-79
2022/07/16 02:07:34;;;;;;;5.60;5.18;;;;;;;19.47;63.67;98865.63;4990823;28;20057;-79
2022/07/16 02:10:00;;;;;;;5.45;5.03;;;;;;;19.36;64.14;98864.25;4974016;28;20048;-78
2022/07/16 02:12:25;;;;;;;7.55;5.50;;;;;;;19.54;64.25;98872.81;4990269;28;20057;-78
2022/07/16 02:14:51;;;;;;;9.68;4.90;;;;;;;19.59;64.62;98858.66;4990384;28;20042;-78
2022/07/16 02:17:17;;;;;;;5.95;4.97;;;;;;;19.72;64.57;98874.28;4941993;28;20450;-78
2022/07/16 02:19:43;;;;;;;6.95;5.10;;;;;;;19.88;64.91;98871.31;4957563;28;20082;-78
2022/07/16 02:22:09;;;;;;;7.28;5.18;;;;;;;19.83;65.11;98862.91;4973701;28;20537;-78
2022/07/16 02:24:35;;;;;;;9.00;5.68;;;;;;;19.98;65.32;98863.69;4989956;28;20043;-79
2022/07/16 02:27:01;;;;;;;7.03;5.63;;;;;;;20.08;65.09;98853.34;4975270;28;20044;-78
2022/07/16 02:29:27;;;;;;;5.70;5.20;;;;;;;20.21;64.82;98876.19;4973669;28;20105;-80
2022/07/16 02:31:52;;;;;;;6.85;5.50;;;;;;;20.11;64.98;98874.63;4941644;28;20518;-78
2022/07/16 02:34:18;;;;;;;7.80;6.07;;;;;;;20.19;65.89;98886.41;4974841;28;20130;-80
2022/07/16 02:36:44;;;;;;;5.78;4.88;;;;;;;20.23;65.55;98874.09;4990300;28;20057;-81
2022/07/16 02:39:10;;;;;;;6.05;4.88;;;;;;;20.32;65.44;98875.66;4973743;28;20490;-80
2022/07/16 02:41:35;;;;;;;6.18;5.10;;;;;;;20.59;65.02;98896.56;4973634;28;20461;-79
2022/07/16 02:44:01;;;;;;;5.30;4.80;;;;;;;20.55;65.08;98898.00;4973720;28;20097;-79
2022/07/16 02:46:27;;;;;;;10.10;5.45;;;;;;;20.68;64.87;98888.25;4973512;28;20125;-79
2022/07/16 02:48:53;;;;;;;5.45;5.03;;;;;;;20.91;64.54;98885.25;4973354;28;20065;-79
2022/07/16 02:51:19;;;;;;;6.40;4.90;;;;;;;20.93;64.23;98899.50;4941529;28;20371;-80
2022/07/16 02:53:44;;;;;;;5.80;5.28;;;;;;;20.92;64.82;98908.69;4958045;28;20521;-81
2022/07/16 02:56:10;;;;;;;5.55;4.78;;;;;;;20.63;65.55;98898.88;4973540;28;20502;-81
2022/07/16 02:58:36;;;;;;;7.70;4.82;;;;;;;20.72;65.89;98906.66;4974638;28;20045;-81
2022/07/16 03:01:02;;;;;;;5.53;4.88;;;;;;;20.93;65.70;98916.63;4974607;28;20053;-77
2022/07/16 03:03:28;;;;;;;7.13;4.95;;;;;;;21.05;65.57;98912.31;4974357;28;20038;-80
2022/07/16 03:05:54;;;;;;;7.40;4.60;;;;;;;21.16;64.95;98910.06;4957173;28;20089;-79
2022/07/16 03:08:20;;;;;;;5.30;4.80;;;;;;;21.25;64.71;98897.97;4957299;28;20070;-80
2022/07/16 03:10:46;;;;;;;5.55;4.95;;;;;;;21.29;64.34;98910.16;4956950;28;20410;-80
2022/07/16 03:13:12;;;;;;;4.90;4.45;;;;;;;21.44;64.30;98908.16;4974055;28;20046;-81
2022/07/16 03:15:37;;;;;;;6.28;4.35;;;;;;;21.55;63.41;98914.88;4973063;28;20047;-82
2022/07/16 03:18:03;;;;;;;5.10;4.15;;;;;;;21.39;63.58;98909.78;4956720;28;20053;-78
2022/07/16 03:20:29;;;;;;;6.63;4.03;;;;;;;21.65;63.61;98922.66;4972575;28;20417;-79
2022/07/16 03:22:55;;;;;;;6.32;4.10;;;;;;;21.58;63.16;98909.03;4973869;28;20054;-78
2022/07/16 03:25:21;;;;;;;8.27;3.80;;;;;;;21.79;62.66;98916.22;4972504;28;20528;-84
2022/07/16 03:27:47;;;;;;;5.95;3.70;;;;;;;22.21;61.76;98919.66;4969178;28;20094;-82
2022/07/16 03:30:14;;;;;;;4.82;3.78;;;;;;;22.37;61.06;98913.78;4953616;29;20158;-82
2022/07/16 03:32:40;;;;;;;4.30;3.50;;;;;;;22.45;60.78;98921.75;4953710;29;20054;-79
2022/07/16 03:35:08;;;;;;;7.03;3.40;;;;;;;22.55;60.49;98927.63;4953567;29;20406;-78
2022/07/16 03:38:57;;;;;;;5.97;3.65;;;;;;;22.42;60.80;98930.38;4984836;28;20055;-81
2022/07/16 03:40:21;;;;;;;5.82;3.30;;;;;;;22.35;61.09;98939.56;4956863;28;20049;-81
2022/07/16 03:42:47;;;;;;;8.35;3.40;;;;;;;22.34;61.35;98941.47;4973228;28;20057;-78
2022/07/16 03:45:13;;;;;;;8.23;3.03;;;;;;;22.55;60.35;98924.91;4972857;28;20051;-81
2022/07/16 03:47:38;;;;;;;4.95;2.90;;;;;;;22.68;60.07;98947.72;4973892;28;20057;-80
2022/07/16 03:50:05;;;;;;;8.13;2.92;;;;;;;22.64;59.76;98925.53;4953287;28;20049;-81
2022/07/16 03:52:31;;;;;;;3.88;3.10;;;;;;;23.03;59.68;98924.66;4973473;28;20046;-80
2022/07/16 03:54:56;;;;;;;7.20;3.35;;;;;;;23.33;58.77;98934.22;4958694;28;20039;-77
2022/07/16 03:57:22;;;;;;;3.65;2.80;;;;;;;23.40;58.31;98930.44;4958742;28;20039;-82
2022/07/16 03:59:48;;;;;;;8.52;2.95;;;;;;;23.25;58.80;98954.41;4957292;29;20141;-80
2022/07/16 04:02:14;;;;;;;6.60;3.15;;;;;;;23.14;58.56;98934.06;4960465;28;20074;-82
2022/07/16 04:04:39;;;;;;;4.65;3.08;;;;;;;23.27;58.27;98936.75;4977857;28;20130;-79
2022/07/16 04:07:05;;;;;;;4.95;2.90;;;;;;;23.40;57.81;98922.25;4961552;29;20050;-82
2022/07/16 04:09:31;;;;;;;5.90;2.85;;;;;;;23.40;57.50;98919.53;4976591;28;20463;-79
2022/07/16 04:11:57;;;;;;;3.13;2.80;;;;;;;23.18;58.20;98926.31;4961594;29;20055;-81
2022/07/16 04:14:23;;;;;;;7.18;2.95;;;;;;;23.20;57.97;98940.53;4978792;28;20078;-80
2022/07/16 04:16:48;;;;;;;4.88;2.88;;;;;;;23.20;57.89;98929.63;4962136;28;20046;-79
2022/07/16 04:19:14;;;;;;;2.80;2.60;;;;;;;23.36;57.93;98937.38;4980444;28;20092;-80
2022/07/16 04:21:40;;;;;;;2.92;2.70;;;;;;;23.57;57.74;98940.84;4977795;28;20055;-79
2022/07/16 04:24:06;;;;;;;2.90;2.70;;;;;;;23.64;57.07;98944.38;4944005;28;20039;-78
2022/07/16 04:26:31;;;;;;;4.72;2.78;;;;;;;23.59;57.34;98955.13;4977050;28;20513;-82
2022/07/16 04:28:57;;;;;;;3.67;2.72;;;;;;;23.47;57.85;98963.97;4975801;28;20097;-78
2022/07/16 04:31:24;;;;;;;4.88;3.10;;;;;;;23.24;58.04;98969.06;4977271;28;20074;-76
2022/07/16 04:33:50;;;;;;;6.53;3.45;;;;;;;22.98;58.45;98964.50;4975304;28;20066;-77
2022/07/16 04:36:15;;;;;;;4.63;2.75;;;;;;;22.87;58.76;98963.25;4991909;28;20047;-78
2022/07/16 04:38:41;;;;;;;7.15;2.80;;;;;;;22.87;59.04;98956.94;4959682;28;20074;-77
2022/07/16 04:41:07;;;;;;;4.38;3.00;;;;;;;22.92;59.20;98966.19;4976914;28;20126;-76
2022/07/16 04:43:33;;;;;;;3.97;2.78;;;;;;;23.06;58.79;98971.66;4975450;28;20047;-78
2022/07/16 04:45:59;;;;;;;6.03;2.92;;;;;;;23.23;58.41;98967.41;4975549;28;20133;-77
2022/07/16 04:48:25;;;;;;;6.45;3.50;;;;;;;23.38;58.38;98986.22;4974789;28;20395;-75
2022/07/16 04:50:51;;;;;;;7.10;2.88;;;;;;;23.39;58.11;98977.81;4959282;28;20053;-76
2022/07/16 04:53:18;;;;;;;4.10;2.78;;;;;;;23.37;58.24;98977.22;4976377;28;20050;-76
2022/07/16 04:55:43;;;;;;;4.03;3.00;;;;;;;23.65;57.76;98965.16;4976205;28;20043;-77
2022/07/16 04:58:09;;;;;;;10.00;2.88;;;;;;;23.52;57.67;98987.88;4958849;28;20050;-80
2022/07/16 05:00:35;;;;;;;4.15;2.95;;;;;;;23.70;57.52;98970.84;4958677;28;20494;-74
2022/07/16 05:03:01;;;;;;;6.38;2.95;;;;;;;24.15;56.82;98992.66;4974938;28;20054;-75
2022/07/16 05:05:33;;;;;;;6.28;3.97;;;;;;;24.29;55.91;98975.13;4975752;28;20046;-76
2022/07/16 05:08:00;;;;;;;4.63;3.50;;;;;;;24.44;55.40;98992.06;4991175;28;20042;-74
2022/07/16 05:10:27;;;;;;;7.55;3.13;;;;;;;24.32;55.39;99002.00;4974513;28;20043;-74
2022/07/16 05:12:53;;;;;;;4.82;3.45;;;;;;;24.38;55.31;98992.94;4975867;28;20046;-75
2022/07/16 05:15:20;;;;;;;3.92;3.55;;;;;;;24.47;55.63;98997.09;4958888;28;20433;-75
2022/07/16 05:17:46;;;;;;;3.72;3.42;;;;;;;24.52;55.34;98993.69;4990288;28;20042;-76
2022/07/16 05:20:13;;;;;;;7.30;3.47;;;;;;;24.70;56.23;98995.66;4990848;28;20141;-82
2022/07/16 05:22:40;;;;;;;5.13;3.50;;;;;;;24.84;54.64;98996.41;4974470;28;20070;-79
2022/07/16 05:25:08;;;;;;;4.88;3.40;;;;;;;24.86;54.21;99000.59;4975555;28;20402;-76
2022/07/16 05:27:34;;;;;;;4.57;3.50;;;;;;;24.58;54.82;99002.91;4990361;28;20050;-75
2022/07/16 05:30:00;;;;;;;3.28;2.97;;;;;;;24.81;54.66;99008.59;4990736;28;20046;-76
2022/07/16 05:32:26;;;;;;;7.90;3.60;;;;;;;24.94;53.49;99008.50;4973782;28;20378;-76
2022/07/16 05:34:52;;;;;;;3.53;3.20;;;;;;;25.01;53.81;99007.59;4974104;28;20049;-75
2022/07/16 05:37:18;;;;;;;8.63;3.30;;;;;;;25.29;53.24;99010.72;4957885;28;20457;-76
2022/07/16 05:39:43;;;;;;;4.13;3.50;;;;;;;25.07;53.58;99009.44;4973815;28;20469;-76
2022/07/16 05:42:10;;;;;;;5.80;3.60;;;;;;;24.91;53.64;99008.94;4975729;28;20134;-79
2022/07/16 05:44:35;;;;;;;9.38;3.30;;;;;;;25.09;53.60;99010.06;4974179;28;20074;-77
2022/07/16 05:47:01;;;;;;;5.20;3.15;;;;;;;25.16;53.32;99006.22;4990008;28;20524;-75
2022/07/16 05:49:27;;;;;;;11.63;3.67;;;;;;;25.30;53.45;99000.59;4975155;28;20117;-75
2022/07/16 05:51:53;;;;;;;3.15;2.95;;;;;;;25.44;52.43;99008.44;4974145;28;20045;-77
2022/07/16 05:54:19;;;;;;;5.60;3.20;;;;;;;25.44;52.69;99000.25;4973751;28;20408;-75
2022/07/16 05:56:44;;;;;;;5.50;3.35;;;;;;;25.47;52.06;99011.81;4975327;28;20053;-75
2022/07/16 05:59:10;;;;;;;4.90;3.42;;;;;;;25.35;52.35;98998.88;4974035;28;20105;-77
2022/07/16 06:01:36;;;;;;;7.45;3.38;;;;;;;25.21;52.72;99002.81;4972828;28;20137;-79
2022/07/16 06:04:02;;;;;;;6.07;3.20;;;;;;;25.29;52.94;98999.78;4975098;28;20042;-75
2022/07/16 06:06:28;;;;;;;8.45;3.70;;;;;;;25.71;52.86;99001.84;4973445;28;20125;-79
2022/07/16 06:08:54;;;;;;;4.20;3.08;;;;;;;25.81;51.39;99005.75;4957034;28;20064;-79
2022/07/16 06:11:20;;;;;;;3.65;3.35;;;;;;;26.50;50.74;99010.94;4974671;28;20497;-77
2022/07/16 06:13:45;;;;;;;3.72;3.30;;;;;;;26.07;50.73;99006.47;4973719;28;20129;-77
2022/07/16 06:16:11;;;;;;;5.43;3.22;;;;;;;26.17;50.75;99004.81;4975122;28;20047;-85
2022/07/16 06:18:37;;;;;;;7.38;3.00;;;;;;;26.17;50.36;99020.44;4957604;28;20405;-84
2022/07/16 06:21:03;;;;;;;5.70;3.40;;;;;;;25.97;51.16;99006.19;4959159;28;20482;-82
2022/07/16 06:23:29;;;;;;;6.38;3.20;;;;;;;25.63;52.14;99011.19;4974079;28;20137;-81
2022/07/16 06:25:55;;;;;;;5.47;3.55;;;;;;;25.71;52.26;99010.88;4975232;28;20462;-81
2022/07/16 06:28:21;;;;;;;13.50;3.55;;;;;;;25.79;51.84;99021.56;4973979;28;20046;-83
2022/07/16 06:30:46;;;;;;;9.98;3.30;;;;;;;25.79;51.85;99020.72;4957270;28;20062;-82
2022/07/16 06:33:12;;;;;;;6.45;2.95;;;;;;;25.65;50.89;99009.91;4972531;28;20057;-82
2022/07/16 06:35:38;;;;;;;11.15;3.38;;;;;;;25.97;51.15;99019.88;4973134;28;20497;-81
2022/07/16 06:38:04;;;;;;;6.35;3.28;;;;;;;26.20;50.04;99016.41;4974538;28;20042;-83
2022/07/16 06:40:30;;;;;;;2.92;2.72;;;;;;;26.06;49.08;99013.81;4957435;28;20480;-81
2022/07/16 06:42:56;;;;;;;3.03;2.78;;;;;;;25.69;49.98;99032.19;4941015;28;20413;-82
2022/07/16 06:45:22;;;;;;;3.42;3.00;;;;;;;25.36;51.09;99014.22;4974557;28;20035;-81
2022/07/16 06:47:48;;;;;;;3.33;2.90;;;;;;;25.32;51.32;99050.47;4956017;28;20035;-80
2022/07/16 06:50:14;;;;;;;3.58;2.80;;;;;;;25.31;51.99;99035.97;4974270;28;20038;-81
2022/07/16 06:52:41;;;;;;;3.53;3.15;;;;;;;25.46;52.04;99034.75;4972682;28;20155;-81
2022/07/16 06:55:07;;;;;;;4.28;3.20;;;;;;;25.72;51.25;99025.41;4974066;28;20117;-80
2022/07/16 06:57:33;;;;;;;4.28;2.90;;;;;;;25.75;51.12;99022.22;4970851;28;20405;-81
2022/07/16 06:59:59;;;;;;;8.70;3.05;;;;;;;26.04;50.97;99012.41;4966887;28;20520;-82
2022/07/16 07:02:25;;;;;;;5.75;2.92;;;;;;;26.08;50.46;99022.66;4960907;28;20125;-80
2022/07/16 07:04:51;;;;;;;12.55;2.63;;;;;;;25.92;49.67;99035.09;4955169;28;20041;-82
2022/07/16 07:07:17;;;;;;;8.10;3.08;;;;;;;25.74;50.79;99031.50;4963643;28;20517;-82
2022/07/16 07:09:43;;;;;;;3.20;2.90;;;;;;;25.88;51.20;99042.09;4962798;28;20125;-81
2022/07/16 07:12:09;;;;;;;4.13;2.70;;;;;;;26.00;50.81;99033.09;4964987;28;20504;-81
2022/07/16 07:14:34;;;;;;;4.72;2.70;;;;;;;25.98;50.44;99030.59;4963538;28;20050;-82
2022/07/16 07:17:01;;;;;;;5.28;2.90;;;;;;;26.45;50.22;99035.44;4945225;28;20118;-80
2022/07/16 07:19:27;;;;;;;4.60;2.55;;;;;;;26.47;49.44;99031.41;4931445;28;20054;-80
2022/07/16 07:21:53;;;;;;;3.38;2.40;;;;;;;26.19;49.44;99048.44;4963811;28;20122;-81
2022/07/16 07:24:19;;;;;;;2.50;2.30;;;;;;;26.08;48.74;99032.78;4963990;28;20509;-83
2022/07/16 07:26:45;;;;;;;3.55;2.50;;;;;;;26.05;49.18;99046.94;4963643;28;20034;-80
2022/07/16 07:29:10;;;;;;;4.65;2.72;;;;;;;26.00;48.93;99038.59;4955447;28;20042;-82
2022/07/16 07:31:36;;;;;;;8.32;2.88;;;;;;;26.14;48.49;99038.19;4954957;28;20043;-81
2022/07/16 07:34:02;;;;;;;6.13;2.58;;;;;;;26.11;48.84;99052.34;4973649;28;20043;-81
2022/07/16 07:36:28;;;;;;;2.60;2.40;;;;;;;26.20;48.27;99038.31;4973253;28;20042;-80
2022/07/16 07:38:54;;;;;;;4.93;2.35;;;;;;;26.62;47.64;99041.94;4972406;28;20410;-81
2022/07/16 07:41:20;;;;;;;8.88;2.83;;;;;;;26.67;47.02;99047.59;4972199;28;20054;-81
2022/07/16 07:43:45;;;;;;;2.70;2.50;;;;;;;26.87;46.57;99048.09;4955919;28;20418;-80
2022/07/16 07:46:11;;;;;;;3.45;2.55;;;;;;;26.63;47.33;99039.00;4972198;28;20074;-82
2022/07/16 07:48:37;;;;;;;3.97;2.70;;;;;;;26.48;47.93;99043.22;4973476;28;20065;-82
2022/07/16 07:51:03;;;;;;;7.07;2.72;;;;;;;26.63;47.92;99055.44;4973295;28;20049;-82
2022/07/16 07:53:29;;;;;;;9.68;3.00;;;;;;;26.49;47.80;99047.66;4973292;28;20043;-81
2022/07/16 07:55:55;;;;;;;3.25;2.50;;;;;;;26.29;48.63;99046.00;4973634;28;20419;-83
2022/07/16 07:58:21;;;;;;;3.05;2.50;;;;;;;26.12;49.19;99058.66;4972126;28;20446;-80
2022/07/16 08:00:47;;;;;;;7.30;2.67;;;;;;;25.95;49.70;99060.31;4970968;28;20592;-82
2022/07/16 08:03:12;;;;;;;4.07;2.80;;;;;;;26.04;49.74;99062.53;4988307;28;20108;-81
2022/07/16 08:05:38;;;;;;;5.90;2.80;;;;;;;26.17;50.06;99058.78;4955675;28;20038;-83
2022/07/16 08:08:04;;;;;;;5.22;2.95;;;;;;;26.46;49.29;99067.28;4973394;28;20043;-81
2022/07/16 08:10:30;;;;;;;12.25;3.17;;;;;;;26.38;49.92;99063.78;4988317;28;20494;-84
2022/07/16 08:12:56;;;;;;;4.43;3.35;;;;;;;26.15;50.40;99069.16;4971787;28;20131;-80
2022/07/16 08:15:22;;;;;;;5.43;3.17;;;;;;;26.43;50.02;99062.25;4972217;28;20043;-81
2022/07/16 08:17:48;;;;;;;5.22;3.10;;;;;;;26.67;49.44;99064.03;4972100;28;20098;-83
2022/07/16 08:20:14;;;;;;;6.53;2.95;;;;;;;26.60;49.18;99057.81;4956395;28;20194;-83
2022/07/16 08:22:41;;;;;;;8.23;2.90;;;;;;;26.45;49.82;99062.84;4988518;28;20043;-84
2022/07/16 08:27:52;;;;;;;8.40;3.17;;;;;;;27.02;49.52;99066.00;4973487;28;20053;-82
2022/07/16 08:30:21;;;;;;;3.42;3.13;;;;;;;27.27;48.60;99080.38;4972294;28;20074;-83
2022/07/16 08:32:47;;;;;;;8.48;3.28;;;;;;;27.47;48.64;99076.44;4955452;28;20047;-83
2022/07/16 08:35:13;;;;;;;6.22;3.10;;;;;;;27.56;48.77;99078.56;4972354;28;20470;-83
2022/07/16 08:37:41;;;;;;;3.80;3.47;;;;;;;27.34;48.72;99064.66;4974216;28;20074;-82
2022/07/16 08:40:09;;;;;;;4.50;2.97;;;;;;;27.24;49.67;99078.13;4976033;28;20098;-84
2022/07/16 08:42:37;;;;;;;3.53;2.90;;;;;;;27.70;48.41;99070.94;4991959;28;20067;-82
2022/07/16 08:45:05;;;;;;;6.55;3.10;;;;;;;28.05;47.69;99072.81;4975491;28;20395;-82
2022/07/16 08:47:33;;;;;;;5.35;3.00;;;;;;;28.21;47.54;99074.81;4975794;28;20043;-83
2022/07/16 08:50:00;;;;;;;7.75;3.10;;;;;;;28.54;46.85;99059.50;4991519;28;20482;-85
2022/07/16 08:52:29;;;;;;;6.83;3.10;;;;;;;28.51;45.76;99068.25;4975461;28;20042;-84
2022/07/16 08:54:56;;;;;;;5.15;3.17;;;;;;;28.14;46.87;99079.59;4975228;28;20344;-82
2022/07/16 08:57:23;;;;;;;9.13;4.03;;;;;;;28.49;46.67;99089.66;4975235;28;20081;-82
2022/07/16 08:59:50;;;;;;;6.72;3.00;;;;;;;28.72;46.05;99078.53;4975299;28;20154;-82
2022/07/16 09:02:17;;;;;;;9.07;3.13;;;;;;;28.87;46.42;99088.97;4943406;28;20070;-82
2022/07/16 09:04:43;;;;;;;4.40;2.90;;;;;;;29.03;45.71;99079.09;4943584;28;20043;-82
2022/07/16 09:07:12;;;;;;;3.90;2.90;;;;;;;29.20;45.54;99082.69;4976382;28;20043;-83
2022/07/16 09:09:40;;;;;;;5.20;2.92;;;;;;;29.42;44.53;99092.97;4975138;28;20105;-82
2022/07/16 09:12:06;;;;;;;3.47;3.28;;;;;;;29.08;44.77;99098.47;4975149;28;20047;-83
2022/07/16 09:14:32;;;;;;;3.95;3.17;;;;;;;29.17;45.27;99083.19;4976226;28;20049;-82
2022/07/16 09:16:59;;;;;;;3.45;3.03;;;;;;;29.16;45.28;99081.53;4976264;28;20075;-82
2022/07/16 09:19:27;;;;;;;3.17;2.92;;;;;;;29.68;44.65;99075.75;4958672;28;20058;-83
2022/07/16 09:22:06;;;;;;;3.60;3.30;;;;;;;29.83;43.22;99077.06;4958858;28;20078;-83
2022/07/16 09:24:41;;;;;;;7.13;3.00;;;;;;;29.33;44.94;99089.78;4974872;28;20494;-83
2022/07/16 09:27:12;;;;;;;4.60;3.05;;;;;;;29.22;44.80;99088.78;4958792;28;20043;-83
2022/07/16 09:29:51;;;;;;;3.92;3.22;;;;;;;29.54;45.01;99079.91;4958477;28;20047;-83
2022/07/16 09:32:39;;;;;;;7.63;3.35;;;;;;;30.10;44.19;99100.00;4958845;28;20450;-83
2022/07/16 09:35:05;;;;;;;6.20;3.53;;;;;;;29.85;43.79;99096.91;4958660;28;20078;-84
2022/07/16 09:37:52;;;;;;;3.42;3.13;;;;;;;30.39;43.19;99086.03;4975546;28;20398;-82
2022/07/16 09:40:38;;;;;;;5.70;2.70;;;;;;;30.81;42.17;99085.44;4974699;28;20046;-83
2022/07/16 09:43:17;;;;;;;15.68;3.13;;;;;;;30.54;40.18;99089.00;4974599;28;20101;-83
2022/07/16 09:45:46;;;;;;;2.80;2.60;;;;;;;30.18;40.88;99080.28;4976565;28;20042;-84
2022/07/16 09:48:35;;;;;;;5.15;2.40;;;;;;;30.08;40.87;99107.69;4974051;28;20050;-84
2022/07/16 09:51:29;;;;;;;3.10;2.80;;;;;;;30.33;40.35;99096.19;4942984;28;20078;-83
2022/07/16 09:53:55;;;;;;;2.90;2.70;;;;;;;30.23;40.66;99085.88;4974791;28;20391;-84
2022/07/16 09:56:26;;;;;;;6.38;2.92;;;;;;;30.57;40.14;99093.97;4975913;28;20054;-83
2022/07/16 09:58:55;;;;;;;2.90;2.70;;;;;;;30.10;39.68;99097.25;4991082;28;20050;-84
2022/07/16 10:01:21;;;;;;;5.50;2.58;;;;;;;29.76;40.70;99100.13;4975803;28;20053;-84
2022/07/16 10:03:48;;;;;;;3.80;2.60;;;;;;;29.82;40.92;99094.66;4974353;28;20612;-83
2022/07/16 10:06:15;;;;;;;2.90;2.63;;;;;;;30.03;40.48;99104.06;4975872;28;20054;-82
2022/07/16 10:08:43;;;;;;;3.42;2.60;;;;;;;30.85;39.72;99097.63;4975381;28;20512;-82
2022/07/16 10:11:10;;;;;;;4.70;2.50;;;;;;;31.44;38.53;99105.84;4974118;28;20493;-82
2022/07/16 10:13:37;;;;;;;4.53;2.50;;;;;;;31.32;38.27;99100.53;4957969;28;20046;-83
2022/07/16 10:16:03;;;;;;;3.33;2.67;;;;;;;31.29;38.51;99101.00;4990022;28;20034;-82
2022/07/16 10:18:29;;;;;;;6.28;2.65;;;;;;;30.38;39.68;99095.41;4973917;28;20046;-81
2022/07/16 10:21:31;;;;;;;2.70;2.50;;;;;;;29.35;40.86;99106.06;4975063;28;20055;-82
2022/07/16 10:24:06;;;;;;;3.10;2.80;;;;;;;28.95;41.89;99109.75;4972128;28;20055;-81
2022/07/16 10:26:33;;;;;;;3.95;2.88;;;;;;;28.97;41.44;99110.34;4973687;28;20133;-81
2022/07/16 10:29:00;;;;;;;10.60;2.60;;;;;;;28.77;41.79;99114.41;4973544;28;20078;-83
2022/07/16 10:31:41;;;;;;;3.80;3.10;;;;;;;28.38;42.78;99101.53;4957432;28;20398;-82
2022/07/16 10:34:13;;;;;;;3.60;2.60;;;;;;;28.70;42.68;99108.22;4989820;28;20447;-82
2022/07/16 10:36:55;;;;;;;5.32;2.80;;;;;;;29.09;41.67;99116.66;4974707;28;20079;-82
2022/07/16 10:39:24;;;;;;;6.70;2.70;;;;;;;29.25;42.08;99098.47;4973376;28;20525;-84
2022/07/16 10:41:53;;;;;;;8.80;2.50;;;;;;;30.70;39.71;99099.09;4974850;28;20046;-82
2022/07/16 10:44:21;;;;;;;8.60;7.20;;;;;;;30.91;38.43;99094.63;4973264;28;20410;-82
2022/07/16 10:46:55;;;;;;;2.63;2.45;;;;;;;31.50;36.84;99101.22;4974033;28;20047;-81
2022/07/16 10:49:22;;;;;;;3.20;2.80;;;;;;;30.94;38.30;99104.31;4973495;28;20520;-81
2022/07/16 10:52:03;;;;;;;5.18;3.35;;;;;;;30.90;38.63;99108.69;4957296;28;20498;-82
2022/07/16 10:54:35;;;;;;;5.93;2.70;;;;;;;31.83;37.60;99111.09;4941685;28;20042;-82
2022/07/16 10:57:03;;;;;;;3.15;2.30;;;;;;;31.71;37.49;99096.63;4957233;28;20081;-82
2022/07/16 10:59:31;;;;;;;3.75;2.53;;;;;;;31.35;38.20;99115.75;4972927;28;20086;-82
2022/07/16 11:02:00;;;;;;;4.28;2.63;;;;;;;32.47;37.17;99110.06;4956812;28;20058;-80
2022/07/16 11:04:41;;;;;;;5.97;2.78;;;;;;;33.23;35.23;99114.94;4974051;28;20059;-85
2022/07/16 11:07:15;;;;;;;6.15;2.53;;;;;;;32.54;35.99;99105.94;4957523;28;20066;-77
2022/07/16 11:09:43;;;;;;;5.13;3.17;;;;;;;32.26;36.51;99114.66;4974296;28;20050;-83
2022/07/16 11:12:17;;;;;;;;;;;;;;;31.36;37.57;99117.41;4973496;28;20038;-83
2022/07/16 11:14:46;;;;;;;5.13;3.30;;;;;;;31.06;38.59;99104.97;4972984;28;20013;-84
2022/07/16 11:17:13;;;;;;;5.55;2.60;;;;;;;30.81;39.24;99115.78;4972967;28;20038;-83
2022/07/16 11:19:48;;;;;;;10.15;2.83;;;;;;;30.96;39.24;99116.75;4972757;28;20458;-83
2022/07/16 11:22:17;;;;;;;7.38;3.22;;;;;;;31.31;38.50;99120.13;4957273;28;20050;-82
2022/07/16 11:24:58;;;;;;;13.18;3.42;;;;;;;32.22;37.96;99124.59;4973030;28;20043;-82
2022/07/16 11:27:35;;;;;;;8.98;2.78;;;;;;;32.19;36.88;99120.44;4957003;28;20053;-82
2022/07/16 11:30:07;;;;;;;3.78;2.65;;;;;;;32.13;37.20;99122.34;4973015;28;20125;-82
2022/07/16 11:32:41;;;;;;;4.82;3.63;;;;;;;31.71;37.75;99130.66;4957434;28;20082;-83
2022/07/16 11:35:07;;;;;;;3.15;2.80;;;;;;;31.29;38.59;99127.81;4957193;28;20422;-83
2022/07/16 11:37:52;;;;;;;3.80;2.97;;;;;;;31.34;38.22;99141.69;4972647;28;20051;-84
2022/07/16 11:40:18;;;;;;;8.13;3.30;;;;;;;31.02;38.71;99128.66;4972900;28;20093;-83